createdAt,value
2022-09-24T00:01:29.138Z,0.03
2022-09-24T00:04:08.424Z,0.10
2022-09-24T00:06:44.280Z,0.20
2022-09-24T00:09:15.052Z,0.10
2022-09-24T00:11:45.884Z,0.65
2022-09-24T00:15:04.453Z,0.15
2022-09-24T00:17:32.397Z,0.00
2022-09-24T00:20:01.191Z,0.20
2022-09-24T00:22:30.868Z,0.85
2022-09-24T00:25:16.977Z,0.10
2022-09-24T00:27:50.710Z,0.22
2022-09-24T00:30:25.946Z,0.10
2022-09-24T00:32:55.921Z,0.10
2022-09-24T00:35:35.706Z,0.20
2022-09-24T00:38:06.664Z,0.00
2022-09-24T00:40:43.439Z,0.03
2022-09-24T00:43:35.541Z,0.08
2022-09-24T00:46:25.867Z,0.03
2022-09-24T00:49:20.164Z,0.10
2022-09-24T00:51:50.834Z,0.10
2022-09-24T00:54:27.164Z,0.10
2022-09-24T00:56:56.137Z,0.00
2022-09-24T00:59:28.693Z,0.10
2022-09-24T01:02:06.285Z,0.10
2022-09-24T01:04:40.229Z,0.40
2022-09-24T01:07:15.101Z,0.30
2022-09-24T01:09:43.288Z,0.57
2022-09-24T01:12:53.904Z,0.30
2022-09-24T01:15:54.884Z,0.30
2022-09-24T01:18:40.925Z,0.30
2022-09-24T01:21:30.062Z,0.10
2022-09-24T01:24:19.282Z,0.28
2022-09-24T01:27:08.143Z,0.50
2022-09-24T01:29:59.385Z,0.30
2022-09-24T01:32:52.460Z,0.20
2022-09-24T01:35:33.297Z,0.25
2022-09-24T01:38:15.404Z,0.57
2022-09-24T01:40:43.236Z,0.20
2022-09-24T01:43:17.157Z,0.17
2022-09-24T01:45:47.826Z,0.20
2022-09-24T01:48:17.450Z,0.30
2022-09-24T01:51:20.502Z,0.30
2022-09-24T01:54:08.251Z,0.10
2022-09-24T01:56:42.096Z,0.20
2022-09-24T01:59:19.947Z,0.28
2022-09-24T02:02:04.693Z,0.30
2022-09-24T02:04:39.273Z,0.40
2022-09-24T02:07:22.625Z,0.20
2022-09-24T02:09:50.475Z,0.10
2022-09-24T02:12:30.020Z,0.40
2022-09-24T02:15:08.040Z,0.30
2022-09-24T02:17:36.356Z,0.20
2022-09-24T02:20:05.769Z,0.50
2022-09-24T02:22:35.810Z,0.20
2022-09-24T02:25:04.839Z,0.10
2022-09-24T02:27:32.527Z,0.50
2022-09-24T02:30:08.644Z,0.22
2022-09-24T02:32:40.631Z,0.20
2022-09-24T02:36:24.263Z,0.43
2022-09-24T02:38:55.080Z,0.60
2022-09-24T02:41:24.151Z,0.98
2022-09-24T02:43:51.913Z,0.85
2022-09-24T02:46:23.475Z,1.10
2022-09-24T02:48:53.880Z,1.30
2022-09-24T02:51:25.983Z,1.58
2022-09-24T02:54:01.472Z,0.82
2022-09-24T02:56:34.524Z,1.20
2022-09-24T02:59:05.517Z,1.27
2022-09-24T03:01:43.621Z,1.30
2022-09-24T03:04:12.361Z,1.38
2022-09-24T03:06:43.355Z,0.95
2022-09-24T03:09:20.126Z,1.38
2022-09-24T03:11:52.890Z,1.67
2022-09-24T03:14:27.290Z,1.52
2022-09-24T03:16:55.822Z,1.23
2022-09-24T03:19:23.486Z,2.30
2022-09-24T03:21:52.296Z,2.05
2022-09-24T03:24:21.251Z,1.45
2022-09-24T03:26:48.758Z,1.95
2022-09-24T03:29:17.335Z,1.92
2022-09-24T03:31:47.505Z,1.33
2022-09-24T03:34:21.295Z,1.67
2022-09-24T03:36:49.103Z,2.65
2022-09-24T03:39:21.095Z,1.02
2022-09-24T03:41:54.925Z,1.42
2022-09-24T03:44:22.602Z,1.98
2022-09-24T03:46:50.710Z,1.27
2022-09-24T03:49:24.882Z,1.75
2022-09-24T03:51:56.185Z,1.45
2022-09-24T03:54:29.927Z,1.40
2022-09-24T03:56:59.286Z,1.42
2022-09-24T03:59:26.991Z,1.30
2022-09-24T04:01:57.391Z,1.02
2022-09-24T04:04:28.888Z,1.15
2022-09-24T04:06:56.679Z,1.65
2022-09-24T04:09:24.465Z,1.40
2022-09-24T04:11:55.114Z,1.98
2022-09-24T04:14:23.342Z,1.25
2022-09-24T04:16:50.771Z,1.50
2022-09-24T04:19:28.424Z,1.30
2022-09-24T04:21:57.143Z,1.67
2022-09-24T04:24:24.871Z,1.30
2022-09-24T04:26:55.061Z,1.55
2022-09-24T04:29:22.916Z,1.25
2022-09-24T04:31:57.839Z,1.00
2022-09-24T04:34:29.071Z,1.20
2022-09-24T04:36:57.101Z,1.45
2022-09-24T04:39:29.010Z,1.30
2022-09-24T04:41:59.798Z,1.45
2022-09-24T04:44:30.397Z,1.40
2022-09-24T04:47:03.256Z,1.10
2022-09-24T04:49:35.582Z,1.23
2022-09-24T04:52:09.329Z,1.67
2022-09-24T04:54:37.164Z,1.50
2022-09-24T04:57:04.831Z,1.38
2022-09-24T04:59:36.227Z,1.08
2022-09-24T05:02:09.342Z,1.40
2022-09-24T05:04:39.848Z,1.42
2022-09-24T05:07:11.859Z,1.40
2022-09-24T05:09:41.293Z,1.42
2022-09-24T05:12:11.203Z,1.05
2022-09-24T05:14:40.558Z,1.38
2022-09-24T05:17:12.630Z,1.08
2022-09-24T05:19:43.107Z,1.48
2022-09-24T05:22:15.930Z,1.38
2022-09-24T05:24:50.798Z,2.80
2022-09-24T05:27:21.132Z,1.60
2022-09-24T05:29:52.260Z,1.77
2022-09-24T05:32:28.013Z,1.85
2022-09-24T05:34:56.736Z,1.42
2022-09-24T05:37:25.530Z,1.58
2022-09-24T05:39:55.026Z,1.50
2022-09-24T05:42:28.622Z,1.98
2022-09-24T05:44:58.616Z,1.05
2022-09-24T05:47:29.176Z,1.10
2022-09-24T05:49:57.954Z,1.20
2022-09-24T05:52:30.616Z,0.90
2022-09-24T05:55:00.120Z,1.00
2022-09-24T05:57:38.731Z,0.75
2022-09-24T06:00:11.239Z,0.68
2022-09-24T06:02:52.875Z,0.70
2022-09-24T06:05:31.000Z,0.80
2022-09-24T06:08:09.031Z,0.85
2022-09-24T06:10:37.517Z,0.50
2022-09-24T06:13:06.116Z,1.02
2022-09-24T06:15:38.674Z,0.68
2022-09-24T06:18:11.021Z,0.60
2022-09-24T06:20:40.161Z,0.30
2022-09-24T06:23:08.397Z,0.43
2022-09-24T06:25:37.876Z,0.30
2022-09-24T06:28:15.844Z,0.45
2022-09-24T06:30:43.523Z,0.30
2022-09-24T06:33:13.929Z,0.20
2022-09-24T06:35:44.882Z,0.40
2022-09-24T06:38:18.304Z,0.55
2022-09-24T06:40:51.341Z,0.40
2022-09-24T06:43:18.829Z,0.80
2022-09-24T06:45:46.167Z,0.95
2022-09-24T06:48:14.042Z,0.80
2022-09-24T06:50:43.579Z,0.40
2022-09-24T06:53:11.453Z,0.57
2022-09-24T06:55:38.781Z,0.50
2022-09-24T06:58:10.777Z,0.60
2022-09-24T07:00:38.896Z,0.95
2022-09-24T07:03:16.339Z,1.10
2022-09-24T07:05:44.047Z,0.57
2022-09-24T07:08:11.343Z,0.68
2022-09-24T07:10:42.540Z,0.77
2022-09-24T07:13:09.812Z,1.48
2022-09-24T07:15:37.014Z,0.93
2022-09-24T07:18:04.288Z,0.85
2022-09-24T07:20:33.379Z,0.43
2022-09-24T07:23:00.414Z,0.55
2022-09-24T07:25:29.095Z,0.55
2022-09-24T07:27:56.308Z,0.50
2022-09-24T07:30:23.677Z,0.60
2022-09-24T07:32:55.772Z,0.68
2022-09-24T07:35:23.846Z,0.93
2022-09-24T07:37:57.900Z,0.80
2022-09-24T07:40:28.450Z,0.60
2022-09-24T07:42:59.913Z,0.98
2022-09-24T07:45:32.427Z,0.77
2022-09-24T07:48:02.093Z,1.15
2022-09-24T07:50:30.994Z,1.13
2022-09-24T07:53:00.901Z,1.35
2022-09-24T07:55:30.621Z,0.82
2022-09-24T07:58:00.962Z,0.82
2022-09-24T08:00:28.265Z,0.65
2022-09-24T08:03:00.466Z,1.10
2022-09-24T08:05:27.938Z,0.55
2022-09-24T08:07:57.136Z,1.00
2022-09-24T08:10:24.879Z,0.57
2022-09-24T08:13:06.706Z,0.68
2022-09-24T08:15:35.270Z,0.52
2022-09-24T08:18:05.542Z,0.40
2022-09-24T08:20:36.027Z,0.63
2022-09-24T08:23:08.035Z,1.02
2022-09-24T08:25:39.252Z,1.20
2022-09-24T08:28:07.368Z,0.70
2022-09-24T08:30:36.710Z,0.75
2022-09-24T08:33:07.532Z,1.17
2022-09-24T08:35:36.650Z,0.80
2022-09-24T08:38:03.816Z,0.57
2022-09-24T08:40:34.625Z,0.50
2022-09-24T08:43:35.111Z,0.55
2022-09-24T08:46:22.769Z,0.40
2022-09-24T08:48:53.170Z,0.82
2022-09-24T08:51:22.070Z,0.65
2022-09-24T08:53:57.413Z,0.65
2022-09-24T08:56:30.291Z,0.73
2022-09-24T08:59:02.146Z,0.80
2022-09-24T09:02:02.123Z,0.63
2022-09-24T09:04:39.879Z,0.50
2022-09-24T09:07:21.032Z,1.15
2022-09-24T09:10:00.766Z,0.60
2022-09-24T09:12:51.981Z,0.70
2022-09-24T09:15:24.767Z,0.22
2022-09-24T09:17:53.339Z,0.55
2022-09-24T09:20:31.889Z,0.60
2022-09-24T09:23:01.586Z,0.82
2022-09-24T09:25:33.306Z,0.70
2022-09-24T09:28:03.088Z,0.57
2022-09-24T09:30:38.268Z,0.70
2022-09-24T09:33:12.468Z,0.30
2022-09-24T09:35:54.946Z,0.28
2022-09-24T09:38:23.530Z,0.20
2022-09-24T09:40:54.038Z,0.35
2022-09-24T09:43:21.565Z,0.28
2022-09-24T09:45:58.049Z,0.20
2022-09-24T09:48:31.505Z,0.10
2022-09-24T09:51:03.791Z,0.20
2022-09-24T09:53:32.173Z,0.43
2022-09-24T09:56:07.598Z,0.10
2022-09-24T09:58:36.868Z,0.10
2022-09-24T10:01:16.584Z,0.20
2022-09-24T10:03:47.103Z,0.00
2022-09-24T10:06:35.920Z,0.10
2022-09-24T10:09:16.597Z,0.00
2022-09-24T10:11:45.527Z,0.00
2022-09-24T10:14:14.984Z,0.65
2022-09-24T10:16:49.537Z,0.10
2022-09-24T10:19:18.980Z,0.00
2022-09-24T10:21:48.052Z,0.00
2022-09-24T10:24:23.665Z,0.10
2022-09-24T10:26:53.815Z,0.10
2022-09-24T10:29:53.040Z,0.00
2022-09-24T10:32:22.252Z,0.00
2022-09-24T10:35:11.023Z,0.20
2022-09-24T10:37:43.809Z,0.20
2022-09-24T10:40:17.775Z,0.10
2022-09-24T10:42:48.785Z,0.00
2022-09-24T10:45:19.916Z,0.47
2022-09-24T10:47:59.427Z,0.10
2022-09-24T10:50:40.451Z,0.10
2022-09-24T10:53:09.708Z,0.10
2022-09-24T10:55:40.666Z,0.10
2022-09-24T10:58:26.586Z,0.00
2022-09-24T11:01:10.534Z,0.00
2022-09-24T11:03:42.842Z,0.00
2022-09-24T11:06:38.190Z,0.00
2022-09-24T11:09:50.523Z,0.10
2022-09-24T11:12:46.597Z,0.00
2022-09-24T11:15:46.333Z,0.00
2022-09-24T11:18:25.707Z,0.13
2022-09-24T11:21:08.595Z,0.10
2022-09-24T11:24:04.197Z,0.85
2022-09-24T11:26:57.769Z,0.30
2022-09-24T11:30:19.186Z,0.00
2022-09-24T11:33:04.815Z,0.00
2022-09-24T11:35:37.690Z,0.00
2022-09-24T11:38:13.774Z,0.00
2022-09-24T11:41:01.387Z,0.00
2022-09-24T11:46:26.665Z,0.00
2022-09-24T11:49:19.267Z,0.00
2022-09-24T11:52:15.686Z,0.00
2022-09-24T11:55:16.078Z,0.00
2022-09-24T11:57:52.922Z,0.00
2022-09-24T12:00:20.756Z,0.00
2022-09-24T12:03:04.282Z,0.00
2022-09-24T12:05:45.067Z,0.00
2022-09-24T12:08:18.789Z,0.00
2022-09-24T12:10:52.647Z,0.00
2022-09-24T12:13:52.487Z,0.00
2022-09-24T12:16:25.749Z,0.45
2022-09-24T12:18:56.241Z,0.00
2022-09-24T12:21:41.342Z,0.00
2022-09-24T12:24:16.891Z,0.00
2022-09-24T12:26:44.601Z,0.00
2022-09-24T12:30:10.711Z,0.00
2022-09-24T12:33:01.856Z,0.00
2022-09-24T12:35:29.024Z,0.00
2022-09-24T12:38:01.007Z,0.00
2022-09-24T12:41:11.576Z,0.00
2022-09-24T12:43:41.206Z,0.00
2022-09-24T12:46:17.333Z,0.00
2022-09-24T12:52:27.406Z,0.03
2022-09-24T12:55:02.441Z,0.17
2022-09-24T12:57:36.643Z,0.38
2022-09-24T13:00:43.923Z,0.40
2022-09-24T13:03:34.363Z,0.00
2022-09-24T13:06:01.577Z,0.00
2022-09-24T13:08:38.739Z,0.00
2022-09-24T13:11:26.698Z,0.00
2022-09-24T13:14:08.965Z,0.00
2022-09-24T13:16:43.479Z,0.00
2022-09-24T13:19:49.055Z,0.00
2022-09-24T13:22:28.267Z,0.00
2022-09-24T13:25:09.056Z,0.00
2022-09-24T13:27:38.349Z,0.00
2022-09-24T13:30:16.162Z,0.00
2022-09-24T13:33:02.647Z,0.00
2022-09-24T13:38:17.719Z,0.00
2022-09-24T13:40:49.057Z,0.00
2022-09-24T13:43:38.171Z,0.00
2022-09-24T13:46:07.945Z,0.00
2022-09-24T13:48:41.070Z,0.00
2022-09-24T13:51:12.517Z,0.00
2022-09-24T13:53:45.285Z,0.00
2022-09-24T13:56:15.021Z,0.00
2022-09-24T13:58:43.289Z,0.00
2022-09-24T14:01:19.445Z,0.08
2022-09-24T14:03:57.524Z,0.00
2022-09-24T14:06:46.178Z,0.00
2022-09-24T14:09:29.687Z,0.00
2022-09-24T14:11:58.865Z,0.43
2022-09-24T14:14:30.364Z,0.10
2022-09-24T14:17:08.967Z,0.20
2022-09-24T14:19:36.313Z,0.00
2022-09-24T14:22:04.119Z,0.00
2022-09-24T14:24:35.123Z,0.00
2022-09-24T14:27:04.926Z,0.00
2022-09-24T14:30:10.704Z,0.00
2022-09-24T14:32:39.444Z,0.00
2022-09-24T14:35:30.079Z,0.10
2022-09-24T14:38:09.570Z,0.00
2022-09-24T14:41:01.387Z,0.00
2022-09-24T14:43:51.467Z,0.00
2022-09-24T14:46:34.354Z,0.00
2022-09-24T14:49:23.085Z,0.00
2022-09-24T14:52:03.699Z,0.00
2022-09-24T14:54:45.028Z,0.03
2022-09-24T14:57:17.587Z,0.00
2022-09-24T14:59:45.871Z,0.00
2022-09-24T15:02:29.735Z,0.00
2022-09-24T15:05:04.808Z,0.15
2022-09-24T15:07:34.531Z,0.00
2022-09-24T15:10:02.963Z,0.00
2022-09-24T15:12:36.109Z,0.00
2022-09-24T15:15:30.664Z,0.00
2022-09-24T15:17:58.310Z,0.00
2022-09-24T15:20:25.677Z,0.00
2022-09-24T15:22:52.931Z,0.00
2022-09-24T15:25:21.246Z,0.00
2022-09-24T15:27:50.254Z,0.00
2022-09-24T15:30:19.714Z,0.00
2022-09-24T15:32:47.458Z,0.00
2022-09-24T15:35:19.531Z,0.00
2022-09-24T15:37:46.764Z,0.00
2022-09-24T15:40:20.803Z,0.00
2022-09-24T15:42:47.944Z,0.00
2022-09-24T15:45:21.248Z,0.00
2022-09-24T15:47:51.436Z,0.00
2022-09-24T15:50:21.681Z,0.00
2022-09-24T15:52:56.831Z,0.00
2022-09-24T15:55:24.144Z,0.00
2022-09-24T15:57:51.231Z,0.00
2022-09-24T16:00:19.686Z,0.00
2022-09-24T16:02:49.959Z,0.00
2022-09-24T16:05:17.384Z,0.00
2022-09-24T16:07:44.403Z,0.00
2022-09-24T16:10:11.864Z,0.00
2022-09-24T16:12:39.426Z,0.00
2022-09-24T16:15:06.836Z,0.00
2022-09-24T16:17:34.094Z,0.00
2022-09-24T16:20:02.827Z,0.00
2022-09-24T16:22:30.005Z,0.00
2022-09-24T16:24:57.086Z,0.00
2022-09-24T16:27:24.184Z,0.10
2022-09-24T16:29:52.225Z,0.00
2022-09-24T16:32:19.232Z,0.00
2022-09-24T16:34:46.251Z,0.00
2022-09-24T16:37:14.563Z,0.00
2022-09-24T16:39:42.897Z,0.00
2022-09-24T16:42:09.941Z,0.00
2022-09-24T16:44:36.975Z,0.10
2022-09-24T16:47:04.227Z,0.00
2022-09-24T16:49:31.176Z,0.00
2022-09-24T16:51:58.211Z,0.00
2022-09-24T16:54:26.357Z,0.00
2022-09-24T16:56:53.468Z,0.00
2022-09-24T16:59:20.887Z,0.00
2022-09-24T17:01:47.886Z,0.00
2022-09-24T17:04:14.906Z,0.00
2022-09-24T17:06:44.557Z,0.00
2022-09-24T17:09:30.564Z,0.00
2022-09-24T17:11:57.544Z,0.00
2022-09-24T17:14:24.527Z,0.00
2022-09-24T17:16:51.760Z,0.00
2022-09-24T17:19:18.686Z,0.00
2022-09-24T17:21:46.833Z,0.00
2022-09-24T17:24:16.475Z,0.00
2022-09-24T17:26:46.156Z,0.00
2022-09-24T17:29:13.132Z,0.00
2022-09-24T17:31:40.184Z,0.00
2022-09-24T17:34:10.245Z,0.00
2022-09-24T17:36:37.393Z,0.00
2022-09-24T17:39:05.468Z,0.00
2022-09-24T17:41:32.597Z,0.00
2022-09-24T17:43:59.838Z,0.30
2022-09-24T17:46:29.313Z,0.00
2022-09-24T17:48:57.687Z,0.00
2022-09-24T17:51:36.231Z,0.00
2022-09-24T17:54:08.552Z,0.00
2022-09-24T17:56:39.052Z,0.00
2022-09-24T17:59:10.495Z,0.00
2022-09-24T18:01:43.467Z,0.00
2022-09-24T18:04:14.510Z,0.00
2022-09-24T18:06:43.138Z,0.00
2022-09-24T18:09:11.298Z,0.00
2022-09-24T18:11:46.152Z,0.00
2022-09-24T18:14:16.843Z,0.00
2022-09-24T18:16:44.144Z,0.00
2022-09-24T18:19:12.417Z,0.00
2022-09-24T18:21:39.740Z,0.00
2022-09-24T18:24:06.852Z,0.10
2022-09-24T18:26:37.532Z,0.00
2022-09-24T18:29:10.211Z,0.00
2022-09-24T18:31:37.882Z,0.00
2022-09-24T18:34:06.861Z,0.00
2022-09-24T18:36:36.198Z,0.20
2022-09-24T18:39:04.160Z,0.00
2022-09-24T18:41:31.378Z,0.00
2022-09-24T18:43:59.060Z,0.00
2022-09-24T18:46:27.371Z,0.00
2022-09-24T18:48:56.215Z,0.00
2022-09-24T18:51:27.659Z,0.00
2022-09-24T18:54:05.994Z,0.00
2022-09-24T18:56:33.346Z,0.10
2022-09-24T18:59:03.689Z,0.00
2022-09-24T19:01:33.136Z,0.00
2022-09-24T19:04:00.803Z,0.00
2022-09-24T19:06:28.566Z,0.30
2022-09-24T19:08:55.703Z,0.00
2022-09-24T19:11:22.911Z,0.00
2022-09-24T19:13:51.145Z,0.00
2022-09-24T19:16:18.760Z,0.00
2022-09-24T19:18:46.086Z,0.00
2022-09-24T19:21:14.132Z,0.00
2022-09-24T19:23:52.042Z,0.00
2022-09-24T19:26:21.592Z,0.00
2022-09-24T19:28:50.874Z,0.00
2022-09-24T19:31:25.029Z,0.00
2022-09-24T19:33:53.032Z,0.17
2022-09-24T19:36:20.129Z,0.00
2022-09-24T19:38:47.450Z,0.00
2022-09-24T19:41:24.939Z,0.00
2022-09-24T19:43:57.038Z,0.00
2022-09-24T19:46:25.583Z,0.00
2022-09-24T19:48:53.844Z,0.00
2022-09-24T19:51:28.309Z,0.00
2022-09-24T19:54:06.587Z,0.00
2022-09-24T19:56:34.121Z,0.10
2022-09-24T19:59:01.341Z,0.00
2022-09-24T20:01:32.306Z,0.17
2022-09-24T20:04:00.361Z,0.10
2022-09-24T20:06:28.969Z,0.10
2022-09-24T20:08:57.083Z,0.00
2022-09-24T20:11:24.842Z,0.00
2022-09-24T20:13:53.002Z,0.00
2022-09-24T20:16:21.328Z,0.10
2022-09-24T20:18:52.116Z,0.00
2022-09-24T20:21:19.482Z,0.00
2022-09-24T20:23:47.091Z,0.00
2022-09-24T20:26:33.377Z,0.00
2022-09-24T20:29:00.500Z,0.00
2022-09-24T20:31:27.709Z,0.03
2022-09-24T20:33:54.784Z,0.00
2022-09-24T20:36:24.420Z,0.00
2022-09-24T20:38:52.475Z,0.00
2022-09-24T20:41:21.307Z,0.00
2022-09-24T20:43:48.302Z,0.00
2022-09-24T20:46:24.104Z,0.00
2022-09-24T20:48:52.215Z,0.00
2022-09-24T20:51:20.259Z,0.00
2022-09-24T20:53:48.097Z,0.00
2022-09-24T20:56:15.725Z,0.00
2022-09-24T20:58:42.921Z,0.00
2022-09-24T21:01:10.571Z,0.00
2022-09-24T21:03:46.102Z,0.00
2022-09-24T21:06:14.989Z,0.00
2022-09-24T21:08:44.482Z,0.32
2022-09-24T21:11:26.964Z,0.10
2022-09-24T21:13:56.216Z,0.00
2022-09-24T21:16:24.981Z,0.00
2022-09-24T21:18:54.144Z,0.20
2022-09-24T21:21:22.824Z,0.00
2022-09-24T21:23:51.201Z,0.00
2022-09-24T21:26:18.925Z,0.00
2022-09-24T21:28:46.913Z,0.00
2022-09-24T21:31:14.819Z,0.00
2022-09-24T21:33:48.019Z,0.20
2022-09-24T21:36:18.610Z,0.00
2022-09-24T21:38:54.308Z,0.00
2022-09-24T21:41:23.110Z,0.08
2022-09-24T21:43:50.120Z,0.00
2022-09-24T21:46:17.151Z,0.10
2022-09-24T21:48:44.322Z,0.00
2022-09-24T21:51:13.846Z,0.00
2022-09-24T21:53:40.868Z,0.00
2022-09-24T21:56:07.820Z,0.00
2022-09-24T21:58:38.799Z,0.00
2022-09-24T22:01:19.715Z,0.00
2022-09-24T22:03:46.852Z,0.00
2022-09-24T22:06:15.372Z,0.00
2022-09-24T22:08:43.178Z,0.00
2022-09-24T22:11:11.537Z,0.00
2022-09-24T22:13:38.981Z,0.00
2022-09-24T22:16:10.612Z,0.00
2022-09-24T22:18:38.312Z,0.00
2022-09-24T22:21:07.825Z,0.00
2022-09-24T22:23:36.887Z,0.00
2022-09-24T22:26:04.066Z,0.10
2022-09-24T22:28:31.481Z,0.00
2022-09-24T22:30:59.936Z,0.00
2022-09-24T22:33:47.534Z,0.10
2022-09-24T22:36:14.966Z,0.00
2022-09-24T22:38:42.074Z,0.20
2022-09-24T22:41:10.935Z,0.00
2022-09-24T22:43:38.274Z,0.10
2022-09-24T22:46:07.285Z,0.00
2022-09-24T22:48:34.514Z,0.00
2022-09-24T22:51:01.746Z,0.00
2022-09-24T22:53:28.940Z,0.00
2022-09-24T22:56:11.803Z,0.08
2022-09-24T22:58:45.281Z,0.00
2022-09-24T23:01:16.934Z,0.00
2022-09-24T23:03:44.734Z,0.13
2022-09-24T23:06:12.308Z,0.00
2022-09-24T23:08:39.381Z,0.08
2022-09-24T23:11:14.133Z,0.00
2022-09-24T23:13:42.360Z,0.10
2022-09-24T23:16:12.124Z,0.10
2022-09-24T23:18:39.818Z,0.10
2022-09-24T23:21:11.618Z,0.00
2022-09-24T23:23:39.268Z,0.10
2022-09-24T23:26:09.606Z,0.10
2022-09-24T23:28:39.543Z,0.10
2022-09-24T23:31:11.934Z,0.10
2022-09-24T23:33:41.342Z,0.22
2022-09-24T23:36:10.935Z,0.13
2022-09-24T23:38:40.918Z,0.20
2022-09-24T23:41:08.402Z,0.10
2022-09-24T23:43:36.048Z,0.10
2022-09-24T23:46:03.664Z,0.00
2022-09-24T23:48:31.947Z,0.00
2022-09-24T23:50:58.875Z,0.00
2022-09-24T23:53:25.926Z,0.10
2022-09-24T23:55:53.901Z,0.00
2022-09-24T23:58:21.616Z,0.20
